WXM80 ListenWXM80 Stop

You find our weather info also at:

UK Metoffice

WeatherCloud

Weather Underground

Northeastern Weather Network

AWEKAS

Citizen Weather Observer Program (CWOP)

HAMweather, WeatherForYou, PWS Weather


Weather Underground History page Text

Daily Summary for January 21, 2018 Units:  Both    English   Metric
« Previous Day
Next Day »
Daily Weekly Monthly Yearly Custom
  High: Low: Average:
Temperature: TemperatureF °F /  -17.8 °C 34.6 °F /  1.4 °C 40.7 °F /  4.8 °C
Dew Point: DewpointF °F /  -17.8 °C 28.9 °F /  -1.7 °C 32 °F /  0 °C
Humidity: Humidity % 57 % 71 %
Wind Speed: WindSpeedMPH mph /  0 km/h - 0.7 mph /  1.1 km/h
Wind Gust: WindSpeedGustMPH mph /  0 km/h - -
Wind:- - WSW
Pressure: PressureIn in /  0 hPa 29.79 in /  1008.7 hPa -
Precipitation: 0.00 in /  0 mm    
Historical Graphs
 
 
Tabular Data for January 21, 2018
Time Temperature Dew Point Pressure Wind Wind Speed Wind Gust Humidity Rainfall Rate (Hourly)
TemperatureF °F /  -17.8 °C DewpointF °F /  -17.8 °C PressureIn in /  0 hPa Calm     Humidity % HourlyPrecipIn in /  0 mm
00:02 39.6 °F /  4.2 °C 29.9 °F /  -1.2 °C 29.79 in /  1008.7 hPa SW 0.8 mph /  1.3 km/h 3.5 mph /  5.6 km/h 68 % 0.00 in /  0 mm
00:07 39.6 °F /  4.2 °C 29.9 °F /  -1.2 °C 29.79 in /  1008.7 hPa SW 1.3 mph /  2.1 km/h 3.5 mph /  5.6 km/h 68 % 0.00 in /  0 mm
00:12 39.5 °F /  4.2 °C 29.8 °F /  -1.2 °C 29.80 in /  1009 hPa SSW 1.5 mph /  2.4 km/h 3.5 mph /  5.6 km/h 68 % 0.00 in /  0 mm
00:17 39.3 °F /  4.1 °C 30.0 °F /  -1.1 °C 29.79 in /  1008.7 hPa SSW 1.1 mph /  1.8 km/h 3.5 mph /  5.6 km/h 69 % 0.00 in /  0 mm
00:23 39.2 °F /  4 °C 29.9 °F /  -1.2 °C 29.80 in /  1009 hPa SSW 1.5 mph /  2.4 km/h 3.5 mph /  5.6 km/h 69 % 0.00 in /  0 mm
00:28 38.9 °F /  3.8 °C 29.6 °F /  -1.3 °C 29.80 in /  1009 hPa SSW 2.5 mph /  4 km/h 3.5 mph /  5.6 km/h 69 % 0.00 in /  0 mm
00:33 38.7 °F /  3.7 °C 29.8 °F /  -1.2 °C 29.79 in /  1008.7 hPa SSW 2.0 mph /  3.2 km/h 3.5 mph /  5.6 km/h 70 % 0.00 in /  0 mm
00:43 38.4 °F /  3.6 °C 29.5 °F /  -1.4 °C 29.80 in /  1009 hPa SSW 2.7 mph /  4.3 km/h 3.5 mph /  5.6 km/h 70 % 0.00 in /  0 mm
00:48 38.2 °F /  3.4 °C 29.3 °F /  -1.5 °C 29.80 in /  1009 hPa SSW 2.1 mph /  3.4 km/h 3.5 mph /  5.6 km/h 70 % 0.00 in /  0 mm
00:53 38.0 °F /  3.3 °C 29.4 °F /  -1.4 °C 29.80 in /  1009 hPa SSW 0.7 mph /  1.1 km/h 2.0 mph /  3.2 km/h 71 % 0.00 in /  0 mm
01:03 37.8 °F /  3.2 °C 29.2 °F /  -1.6 °C 29.80 in /  1009 hPa SSW 1.1 mph /  1.8 km/h 2.3 mph /  3.7 km/h 71 % 0.00 in /  0 mm
01:18 37.7 °F /  3.2 °C 29.8 °F /  -1.2 °C 29.80 in /  1009 hPa SW 1.7 mph /  2.7 km/h 3.5 mph /  5.6 km/h 73 % 0.00 in /  0 mm
01:28 37.6 °F /  3.1 °C 29.7 °F /  -1.3 °C 29.80 in /  1009 hPa SSW 2.3 mph /  3.7 km/h 3.5 mph /  5.6 km/h 73 % 0.00 in /  0 mm
01:33 37.6 °F /  3.1 °C 29.7 °F /  -1.3 °C 29.80 in /  1009 hPa SW 2.2 mph /  3.5 km/h 3.5 mph /  5.6 km/h 73 % 0.00 in /  0 mm
01:38 37.5 °F /  3.1 °C 29.6 °F /  -1.3 °C 29.80 in /  1009 hPa SW 1.7 mph /  2.7 km/h 3.5 mph /  5.6 km/h 73 % 0.00 in /  0 mm
01:43 37.5 °F /  3.1 °C 29.6 °F /  -1.3 °C 29.81 in /  1009.4 hPa SW 1.6 mph /  2.6 km/h 2.3 mph /  3.7 km/h 73 % 0.00 in /  0 mm
01:48 37.4 °F /  3 °C 29.5 °F /  -1.4 °C 29.81 in /  1009.4 hPa SW 1.7 mph /  2.7 km/h 3.5 mph /  5.6 km/h 73 % 0.00 in /  0 mm
01:53 37.4 °F /  3 °C 29.9 °F /  -1.2 °C 29.81 in /  1009.4 hPa SW 1.9 mph /  3.1 km/h 3.5 mph /  5.6 km/h 74 % 0.00 in /  0 mm
01:58 37.4 °F /  3 °C 29.9 °F /  -1.2 °C 29.81 in /  1009.4 hPa SSW 2.5 mph /  4 km/h 3.5 mph /  5.6 km/h 74 % 0.00 in /  0 mm
02:03 37.4 °F /  3 °C 29.9 °F /  -1.2 °C 29.81 in /  1009.4 hPa SW 2.2 mph /  3.5 km/h 3.5 mph /  5.6 km/h 74 % 0.00 in /  0 mm
02:08 37.4 °F /  3 °C 29.9 °F /  -1.2 °C 29.81 in /  1009.4 hPa SSW 2.5 mph /  4 km/h 3.5 mph /  5.6 km/h 74 % 0.00 in /  0 mm
02:13 37.3 °F /  2.9 °C 29.8 °F /  -1.2 °C 29.82 in /  1009.7 hPa SSW 2.6 mph /  4.2 km/h 3.5 mph /  5.6 km/h 74 % 0.00 in /  0 mm
02:18 37.3 °F /  2.9 °C 29.8 °F /  -1.2 °C 29.82 in /  1009.7 hPa SW 1.9 mph /  3.1 km/h 3.5 mph /  5.6 km/h 74 % 0.00 in /  0 mm
02:24 37.3 °F /  2.9 °C 29.8 °F /  -1.2 °C 29.82 in /  1009.7 hPa SW 0.6 mph /  1 km/h 2.3 mph /  3.7 km/h 74 % 0.00 in /  0 mm
02:29 37.3 °F /  2.9 °C 29.8 °F /  -1.2 °C 29.82 in /  1009.7 hPa SW 1.3 mph /  2.1 km/h 3.5 mph /  5.6 km/h 74 % 0.00 in /  0 mm
02:34 37.2 °F /  2.9 °C 30.0 °F /  -1.1 °C 29.83 in /  1010 hPa SW 0.9 mph /  1.4 km/h 3.5 mph /  5.6 km/h 75 % 0.00 in /  0 mm
02:39 37.1 °F /  2.8 °C 29.6 °F /  -1.3 °C 29.82 in /  1009.7 hPa SW 0.3 mph /  0.5 km/h 1.2 mph /  1.9 km/h 74 % 0.00 in /  0 mm
02:44 37.0 °F /  2.8 °C 29.5 °F /  -1.4 °C 29.82 in /  1009.7 hPa SW 0.5 mph /  0.8 km/h 2.0 mph /  3.2 km/h 74 % 0.00 in /  0 mm
02:54 36.8 °F /  2.7 °C 29.6 °F /  -1.3 °C 29.82 in /  1009.7 hPa SW 0.2 mph /  0.3 km/h 2.3 mph /  3.7 km/h 75 % 0.00 in /  0 mm
03:04 36.4 °F /  2.4 °C 29.2 °F /  -1.6 °C 29.82 in /  1009.7 hPa Calm     75 % 0.00 in /  0 mm
03:10 36.2 °F /  2.3 °C 29.0 °F /  -1.7 °C 29.82 in /  1009.7 hPa SW 0.3 mph /  0.5 km/h 1.2 mph /  1.9 km/h 75 % 0.00 in /  0 mm
03:20 35.9 °F /  2.2 °C 29.1 °F /  -1.6 °C 29.81 in /  1009.4 hPa Calm     76 % 0.00 in /  0 mm
03:25 35.8 °F /  2.1 °C 28.9 °F /  -1.7 °C 29.82 in /  1009.7 hPa Calm   2.0 mph /  3.2 km/h 76 % 0.00 in /  0 mm
03:35 35.5 °F /  1.9 °C 29.0 °F /  -1.7 °C 29.81 in /  1009.4 hPa SW 1.0 mph /  1.6 km/h 2.0 mph /  3.2 km/h 77 % 0.00 in /  0 mm
03:40 35.4 °F /  1.9 °C 29.2 °F /  -1.6 °C 29.82 in /  1009.7 hPa SW 1.0 mph /  1.6 km/h 4.0 mph /  6.4 km/h 78 % 0.00 in /  0 mm
03:45 35.3 °F /  1.8 °C 29.1 °F /  -1.6 °C 29.82 in /  1009.7 hPa SW 1.0 mph /  1.6 km/h 3.0 mph /  4.8 km/h 78 % 0.00 in /  0 mm
03:50 35.2 °F /  1.8 °C 29.0 °F /  -1.7 °C 29.82 in /  1009.7 hPa SSW 1.0 mph /  1.6 km/h 3.0 mph /  4.8 km/h 78 % 0.00 in /  0 mm
03:55 35.1 °F /  1.7 °C 29.2 °F /  -1.6 °C 29.82 in /  1009.7 hPa Calm   2.0 mph /  3.2 km/h 79 % 0.00 in /  0 mm
04:06 35.1 °F /  1.7 °C 29.6 °F /  -1.3 °C 29.82 in /  1009.7 hPa Calm   7.0 mph /  11.3 km/h 80 % 0.00 in /  0 mm
04:11 35.3 °F /  1.8 °C 30.1 °F /  -1.1 °C 29.82 in /  1009.7 hPa Calm   5.0 mph /  8 km/h 81 % 0.00 in /  0 mm
04:16 35.5 °F /  1.9 °C 29.9 °F /  -1.2 °C 29.82 in /  1009.7 hPa SW 2.0 mph /  3.2 km/h 4.0 mph /  6.4 km/h 80 % 0.00 in /  0 mm
04:21 35.6 °F /  2 °C 30.0 °F /  -1.1 °C 29.83 in /  1010 hPa SSW 1.3 mph /  2.1 km/h 2.3 mph /  3.7 km/h 80 % 0.00 in /  0 mm
04:26 35.7 °F /  2.1 °C 30.1 °F /  -1.1 °C 29.83 in /  1010 hPa SSW 1.0 mph /  1.6 km/h 3.0 mph /  4.8 km/h 80 % 0.00 in /  0 mm
04:31 35.7 °F /  2.1 °C 30.1 °F /  -1.1 °C 29.83 in /  1010 hPa SSW 2.0 mph /  3.2 km/h 4.0 mph /  6.4 km/h 80 % 0.00 in /  0 mm
04:36 35.8 °F /  2.1 °C 30.2 °F /  -1 °C 29.83 in /  1010 hPa SSW 1.0 mph /  1.6 km/h 3.0 mph /  4.8 km/h 80 % 0.00 in /  0 mm
04:41 35.9 °F /  2.2 °C 30.0 °F /  -1.1 °C 29.83 in /  1010 hPa SSW 1.5 mph /  2.4 km/h 2.3 mph /  3.7 km/h 79 % 0.00 in /  0 mm
04:46 35.9 °F /  2.2 °C 30.0 °F /  -1.1 °C 29.83 in /  1010 hPa Calm   2.0 mph /  3.2 km/h 79 % 0.00 in /  0 mm
04:51 35.9 °F /  2.2 °C 30.0 °F /  -1.1 °C 29.84 in /  1010.4 hPa SSW 2.0 mph /  3.2 km/h 3.0 mph /  4.8 km/h 79 % 0.00 in /  0 mm
04:55 36.0 °F /  2.2 °C 30.1 °F /  -1.1 °C 29.84 in /  1010.4 hPa SW 0.2 mph /  0.3 km/h 1.0 mph /  1.6 km/h 79 % 0.00 in /  0 mm
05:01 36.0 °F /  2.2 °C 30.1 °F /  -1.1 °C 29.84 in /  1010.4 hPa West 2.0 mph /  3.2 km/h 3.5 mph /  5.6 km/h 79 % 0.00 in /  0 mm
05:06 36.1 °F /  2.3 °C 30.2 °F /  -1 °C 29.84 in /  1010.4 hPa WNW 2.3 mph /  3.7 km/h 3.5 mph /  5.6 km/h 79 % 0.00 in /  0 mm
05:11 36.1 °F /  2.3 °C 30.2 °F /  -1 °C 29.84 in /  1010.4 hPa WSW 1.4 mph /  2.3 km/h 3.5 mph /  5.6 km/h 79 % 0.00 in /  0 mm
05:16 36.2 °F /  2.3 °C 30.3 °F /  -0.9 °C 29.84 in /  1010.4 hPa WSW 2.1 mph /  3.4 km/h 4.0 mph /  6.4 km/h 79 % 0.00 in /  0 mm
05:21 36.4 °F /  2.4 °C 30.5 °F /  -0.8 °C 29.84 in /  1010.4 hPa WSW 0.1 mph /  0.2 km/h 2.3 mph /  3.7 km/h 79 % 0.00 in /  0 mm
05:26 36.5 °F /  2.5 °C 30.6 °F /  -0.8 °C 29.85 in /  1010.7 hPa WSW 0.4 mph /  0.6 km/h 2.3 mph /  3.7 km/h 79 % 0.00 in /  0 mm
05:31 36.6 °F /  2.6 °C 30.7 °F /  -0.7 °C 29.84 in /  1010.4 hPa Calm   1.2 mph /  1.9 km/h 79 % 0.00 in /  0 mm
05:36 36.6 °F /  2.6 °C 30.7 °F /  -0.7 °C 29.85 in /  1010.7 hPa Calm     79 % 0.00 in /  0 mm
05:41 36.7 °F /  2.6 °C 30.5 °F /  -0.8 °C 29.85 in /  1010.7 hPa West 0.8 mph /  1.3 km/h 3.5 mph /  5.6 km/h 78 % 0.00 in /  0 mm
05:46 36.7 °F /  2.6 °C 30.5 °F /  -0.8 °C 29.85 in /  1010.7 hPa Calm     78 % 0.00 in /  0 mm
05:51 36.7 °F /  2.6 °C 30.5 °F /  -0.8 °C 29.86 in /  1011.1 hPa WNW 1.5 mph /  2.4 km/h 3.5 mph /  5.6 km/h 78 % 0.00 in /  0 mm
05:56 36.6 °F /  2.6 °C 30.4 °F /  -0.9 °C 29.86 in /  1011.1 hPa West 1.6 mph /  2.6 km/h 2.3 mph /  3.7 km/h 78 % 0.00 in /  0 mm
06:01 36.6 °F /  2.6 °C 30.4 °F /  -0.9 °C 29.87 in /  1011.4 hPa West 0.5 mph /  0.8 km/h 2.3 mph /  3.7 km/h 78 % 0.00 in /  0 mm
06:06 36.5 °F /  2.5 °C 30.3 °F /  -0.9 °C 29.86 in /  1011.1 hPa WSW 1.7 mph /  2.7 km/h 2.3 mph /  3.7 km/h 78 % 0.00 in /  0 mm
06:11 36.4 °F /  2.4 °C 30.2 °F /  -1 °C 29.87 in /  1011.4 hPa SW 1.6 mph /  2.6 km/h 2.3 mph /  3.7 km/h 78 % 0.00 in /  0 mm
06:16 36.2 °F /  2.3 °C 30.0 °F /  -1.1 °C 29.87 in /  1011.4 hPa SW 0.6 mph /  1 km/h 1.2 mph /  1.9 km/h 78 % 0.00 in /  0 mm
06:21 36.1 °F /  2.3 °C 29.9 °F /  -1.2 °C 29.87 in /  1011.4 hPa SW 0.7 mph /  1.1 km/h 2.3 mph /  3.7 km/h 78 % 0.00 in /  0 mm
06:26 36.0 °F /  2.2 °C 30.1 °F /  -1.1 °C 29.88 in /  1011.7 hPa West 1.9 mph /  3.1 km/h 3.5 mph /  5.6 km/h 79 % 0.00 in /  0 mm
06:31 35.9 °F /  2.2 °C 30.0 °F /  -1.1 °C 29.87 in /  1011.4 hPa West 0.6 mph /  1 km/h 1.2 mph /  1.9 km/h 79 % 0.00 in /  0 mm
06:36 35.7 °F /  2.1 °C 30.1 °F /  -1.1 °C 29.88 in /  1011.7 hPa West 1.1 mph /  1.8 km/h 3.0 mph /  4.8 km/h 80 % 0.00 in /  0 mm
06:41 35.6 °F /  2 °C 30.0 °F /  -1.1 °C 29.88 in /  1011.7 hPa SW 0.2 mph /  0.3 km/h 1.2 mph /  1.9 km/h 80 % 0.00 in /  0 mm
06:46 35.5 °F /  1.9 °C 29.9 °F /  -1.2 °C 29.89 in /  1012.1 hPa SW 0.4 mph /  0.6 km/h 2.0 mph /  3.2 km/h 80 % 0.00 in /  0 mm
06:52 35.3 °F /  1.8 °C 30.1 °F /  -1.1 °C 29.89 in /  1012.1 hPa SW 1.1 mph /  1.8 km/h 2.3 mph /  3.7 km/h 81 % 0.00 in /  0 mm
06:57 35.2 °F /  1.8 °C 30.0 °F /  -1.1 °C 29.89 in /  1012.1 hPa SW 0.8 mph /  1.3 km/h 3.5 mph /  5.6 km/h 81 % 0.00 in /  0 mm
07:02 35.1 °F /  1.7 °C 29.9 °F /  -1.2 °C 29.89 in /  1012.1 hPa SW 1.0 mph /  1.6 km/h 3.5 mph /  5.6 km/h 81 % 0.00 in /  0 mm
07:07 34.9 °F /  1.6 °C 29.7 °F /  -1.3 °C 29.89 in /  1012.1 hPa SW 0.8 mph /  1.3 km/h 2.3 mph /  3.7 km/h 81 % 0.00 in /  0 mm
07:12 34.8 °F /  1.6 °C 29.9 °F /  -1.2 °C 29.90 in /  1012.4 hPa SW 1.1 mph /  1.8 km/h 2.3 mph /  3.7 km/h 82 % 0.00 in /  0 mm
07:17 34.7 °F /  1.5 °C 29.8 °F /  -1.2 °C 29.90 in /  1012.4 hPa SW 2.2 mph /  3.5 km/h 3.5 mph /  5.6 km/h 82 % 0.00 in /  0 mm
07:22 34.7 °F /  1.5 °C 29.8 °F /  -1.2 °C 29.90 in /  1012.4 hPa SW 1.8 mph /  2.9 km/h 3.5 mph /  5.6 km/h 82 % 0.00 in /  0 mm
07:27 34.6 °F /  1.4 °C 30.0 °F /  -1.1 °C 29.90 in /  1012.4 hPa SW 1.7 mph /  2.7 km/h 3.5 mph /  5.6 km/h 83 % 0.00 in /  0 mm
07:32 34.6 °F /  1.4 °C 30.0 °F /  -1.1 °C 29.90 in /  1012.4 hPa SW 0.9 mph /  1.4 km/h 2.3 mph /  3.7 km/h 83 % 0.00 in /  0 mm
07:37 34.6 °F /  1.4 °C 30.0 °F /  -1.1 °C 29.90 in /  1012.4 hPa SW 0.3 mph /  0.5 km/h 1.2 mph /  1.9 km/h 83 % 0.00 in /  0 mm
07:42 34.7 °F /  1.5 °C 30.1 °F /  -1.1 °C 29.91 in /  1012.8 hPa SW 1.1 mph /  1.8 km/h 3.5 mph /  5.6 km/h 83 % 0.00 in /  0 mm
07:47 34.9 °F /  1.6 °C 30.6 °F /  -0.8 °C 29.91 in /  1012.8 hPa SW 2.2 mph /  3.5 km/h 3.5 mph /  5.6 km/h 84 % 0.00 in /  0 mm
07:52 35.1 °F /  1.7 °C 30.8 °F /  -0.7 °C 29.91 in /  1012.8 hPa SW 1.5 mph /  2.4 km/h 3.0 mph /  4.8 km/h 84 % 0.00 in /  0 mm
07:57 35.3 °F /  1.8 °C 30.7 °F /  -0.7 °C 29.92 in /  1013.1 hPa Calm   1.2 mph /  1.9 km/h 83 % 0.00 in /  0 mm
08:02 35.5 °F /  1.9 °C 30.8 °F /  -0.7 °C 29.91 in /  1012.8 hPa WSW 0.5 mph /  0.8 km/h 2.3 mph /  3.7 km/h 83 % 0.00 in /  0 mm
08:07 35.8 °F /  2.1 °C 31.1 °F /  -0.5 °C 29.91 in /  1012.8 hPa SW 0.8 mph /  1.3 km/h 3.0 mph /  4.8 km/h 83 % 0.00 in /  0 mm
08:12 36.1 °F /  2.3 °C 31.4 °F /  -0.3 °C 29.91 in /  1012.8 hPa WSW 1.4 mph /  2.3 km/h 3.5 mph /  5.6 km/h 83 % 0.00 in /  0 mm
08:17 36.4 °F /  2.4 °C 31.4 °F /  -0.3 °C 29.92 in /  1013.1 hPa Calm     82 % 0.00 in /  0 mm
08:22 36.8 °F /  2.7 °C 31.8 °F /  -0.1 °C 29.92 in /  1013.1 hPa Calm   1.2 mph /  1.9 km/h 82 % 0.00 in /  0 mm
08:27 37.1 °F /  2.8 °C 31.8 °F /  -0.1 °C 29.92 in /  1013.1 hPa Calm     81 % 0.00 in /  0 mm
08:32 37.5 °F /  3.1 °C 31.9 °F /  -0.1 °C 29.93 in /  1013.4 hPa Calm   1.2 mph /  1.9 km/h 80 % 0.00 in /  0 mm
08:37 37.9 °F /  3.3 °C 32.0 °F /  0 °C 29.92 in /  1013.1 hPa Calm   3.5 mph /  5.6 km/h 79 % 0.00 in /  0 mm
08:42 38.3 °F /  3.5 °C 32.0 °F /  0 °C 29.92 in /  1013.1 hPa Calm     78 % 0.00 in /  0 mm
08:48 38.6 °F /  3.7 °C 32.3 °F /  0.2 °C 29.93 in /  1013.4 hPa Calm     78 % 0.00 in /  0 mm
08:53 38.9 °F /  3.8 °C 33.3 °F /  0.7 °C 29.93 in /  1013.4 hPa WNW 0.5 mph /  0.8 km/h 1.0 mph /  1.6 km/h 80 % 0.00 in /  0 mm
08:58 39.2 °F /  4 °C 33.2 °F /  0.7 °C 29.93 in /  1013.4 hPa NNW 1.2 mph /  1.9 km/h 2.3 mph /  3.7 km/h 79 % 0.00 in /  0 mm
09:03 39.6 °F /  4.2 °C 33.3 °F /  0.7 °C 29.93 in /  1013.4 hPa NNW 0.8 mph /  1.3 km/h 2.3 mph /  3.7 km/h 78 % 0.00 in /  0 mm
09:08 39.8 °F /  4.3 °C 33.5 °F /  0.8 °C 29.93 in /  1013.4 hPa NE 2.1 mph /  3.4 km/h 4.6 mph /  7.4 km/h 78 % 0.00 in /  0 mm
09:13 40.1 °F /  4.5 °C 33.8 °F /  1 °C 29.93 in /  1013.4 hPa NNE 1.8 mph /  2.9 km/h 3.5 mph /  5.6 km/h 78 % 0.00 in /  0 mm
09:18 40.0 °F /  4.4 °C 33.7 °F /  0.9 °C 29.94 in /  1013.8 hPa Calm     78 % 0.00 in /  0 mm
09:23 40.1 °F /  4.5 °C 34.1 °F /  1.2 °C 29.94 in /  1013.8 hPa Calm     79 % 0.00 in /  0 mm
09:28 40.3 °F /  4.6 °C 34.6 °F /  1.4 °C 29.95 in /  1014.1 hPa NNE 0.2 mph /  0.3 km/h 1.2 mph /  1.9 km/h 80 % 0.00 in /  0 mm
09:33 40.5 °F /  4.7 °C 34.2 °F /  1.2 °C 29.95 in /  1014.1 hPa North 1.6 mph /  2.6 km/h 3.5 mph /  5.6 km/h 78 % 0.00 in /  0 mm
09:38 40.7 °F /  4.8 °C 34.0 °F /  1.1 °C 29.94 in /  1013.8 hPa Calm     77 % 0.00 in /  0 mm
09:43 40.9 °F /  4.9 °C 33.6 °F /  0.9 °C 29.94 in /  1013.8 hPa NW 1.5 mph /  2.4 km/h 3.5 mph /  5.6 km/h 75 % 0.00 in /  0 mm
09:48 41.1 °F /  5.1 °C 33.4 °F /  0.8 °C 29.94 in /  1013.8 hPa NW 0.9 mph /  1.4 km/h 2.3 mph /  3.7 km/h 74 % 0.00 in /  0 mm
09:53 41.4 °F /  5.2 °C 33.4 °F /  0.8 °C 29.94 in /  1013.8 hPa WNW 1.1 mph /  1.8 km/h 4.0 mph /  6.4 km/h 73 % 0.00 in /  0 mm
09:58 41.8 °F /  5.4 °C 33.4 °F /  0.8 °C 29.94 in /  1013.8 hPa West 0.9 mph /  1.4 km/h 3.0 mph /  4.8 km/h 72 % 0.00 in /  0 mm
10:03 42.3 °F /  5.7 °C 33.6 °F /  0.9 °C 29.94 in /  1013.8 hPa Calm     71 % 0.00 in /  0 mm
10:08 42.9 °F /  6.1 °C 33.4 °F /  0.8 °C 29.94 in /  1013.8 hPa Calm   1.2 mph /  1.9 km/h 69 % 0.00 in /  0 mm
10:13 43.7 °F /  6.5 °C 33.8 °F /  1 °C 29.95 in /  1014.1 hPa WNW 0.2 mph /  0.3 km/h 2.3 mph /  3.7 km/h 68 % 0.00 in /  0 mm
10:18 44.4 °F /  6.9 °C 33.7 °F /  0.9 °C 29.95 in /  1014.1 hPa NNE 1.0 mph /  1.6 km/h 2.3 mph /  3.7 km/h 66 % 0.00 in /  0 mm
10:23 45.3 °F /  7.4 °C 33.8 °F /  1 °C 29.95 in /  1014.1 hPa NNW 1.1 mph /  1.8 km/h 4.0 mph /  6.4 km/h 64 % 0.00 in /  0 mm
10:28 45.8 °F /  7.7 °C 34.3 °F /  1.3 °C 29.95 in /  1014.1 hPa NNE 0.9 mph /  1.4 km/h 2.3 mph /  3.7 km/h 64 % 0.00 in /  0 mm
10:33 46.3 °F /  7.9 °C 34.0 °F /  1.1 °C 29.95 in /  1014.1 hPa North 2.5 mph /  4 km/h 3.5 mph /  5.6 km/h 62 % 0.00 in /  0 mm
10:38 46.5 °F /  8.1 °C 33.8 °F /  1 °C 29.95 in /  1014.1 hPa NNW 0.7 mph /  1.1 km/h 3.5 mph /  5.6 km/h 61 % 0.00 in /  0 mm
10:44 46.6 °F /  8.1 °C 33.4 °F /  0.8 °C 29.95 in /  1014.1 hPa NNW 2.0 mph /  3.2 km/h 3.5 mph /  5.6 km/h 60 % 0.00 in /  0 mm
10:49 46.6 °F /  8.1 °C 33.4 °F /  0.8 °C 29.95 in /  1014.1 hPa NNW 1.8 mph /  2.9 km/h 3.5 mph /  5.6 km/h 60 % 0.00 in /  0 mm
10:54 46.5 °F /  8.1 °C 33.4 °F /  0.8 °C 29.95 in /  1014.1 hPa North 2.4 mph /  3.9 km/h 4.6 mph /  7.4 km/h 60 % 0.00 in /  0 mm
10:59 46.4 °F /  8 °C 33.3 °F /  0.7 °C 29.95 in /  1014.1 hPa North 0.6 mph /  1 km/h 3.5 mph /  5.6 km/h 60 % 0.00 in /  0 mm
11:04 46.3 °F /  7.9 °C 33.2 °F /  0.7 °C 29.95 in /  1014.1 hPa North 0.6 mph /  1 km/h 2.3 mph /  3.7 km/h 60 % 0.00 in /  0 mm
11:09 46.1 °F /  7.8 °C 33.0 °F /  0.6 °C 29.94 in /  1013.8 hPa North 0.7 mph /  1.1 km/h 3.5 mph /  5.6 km/h 60 % 0.00 in /  0 mm
11:14 46.0 °F /  7.8 °C 33.3 °F /  0.7 °C 29.94 in /  1013.8 hPa Calm   2.3 mph /  3.7 km/h 61 % 0.00 in /  0 mm
11:19 45.7 °F /  7.6 °C 33.0 °F /  0.6 °C 29.94 in /  1013.8 hPa North 2.6 mph /  4.2 km/h 3.5 mph /  5.6 km/h 61 % 0.00 in /  0 mm
11:24 45.6 °F /  7.6 °C 33.3 °F /  0.7 °C 29.93 in /  1013.4 hPa NNW 1.5 mph /  2.4 km/h 3.5 mph /  5.6 km/h 62 % 0.00 in /  0 mm
11:29 45.6 °F /  7.6 °C 33.3 °F /  0.7 °C 29.93 in /  1013.4 hPa NNW 0.5 mph /  0.8 km/h 1.2 mph /  1.9 km/h 62 % 0.00 in /  0 mm
11:34 45.6 °F /  7.6 °C 33.3 °F /  0.7 °C 29.93 in /  1013.4 hPa North 0.6 mph /  1 km/h 2.3 mph /  3.7 km/h 62 % 0.00 in /  0 mm
11:39 45.5 °F /  7.5 °C 33.2 °F /  0.7 °C 29.93 in /  1013.4 hPa North 0.5 mph /  0.8 km/h 2.3 mph /  3.7 km/h 62 % 0.00 in /  0 mm
11:44 45.5 °F /  7.5 °C 33.2 °F /  0.7 °C 29.93 in /  1013.4 hPa NNE 0.4 mph /  0.6 km/h 2.3 mph /  3.7 km/h 62 % 0.00 in /  0 mm
11:49 45.4 °F /  7.4 °C 33.5 °F /  0.8 °C 29.93 in /  1013.4 hPa NNE 0.9 mph /  1.4 km/h 2.3 mph /  3.7 km/h 63 % 0.00 in /  0 mm
11:54 45.4 °F /  7.4 °C 33.1 °F /  0.6 °C 29.93 in /  1013.4 hPa NNE 0.1 mph /  0.2 km/h 1.2 mph /  1.9 km/h 62 % 0.00 in /  0 mm
11:59 45.4 °F /  7.4 °C 32.7 °F /  0.4 °C 29.93 in /  1013.4 hPa NNE 1.5 mph /  2.4 km/h 2.3 mph /  3.7 km/h 61 % 0.00 in /  0 mm
12:04 45.4 °F /  7.4 °C 33.1 °F /  0.6 °C 29.92 in /  1013.1 hPa NNW 1.2 mph /  1.9 km/h 2.3 mph /  3.7 km/h 62 % 0.00 in /  0 mm
12:09 45.3 °F /  7.4 °C 33.0 °F /  0.6 °C 29.92 in /  1013.1 hPa North 0.9 mph /  1.4 km/h 2.0 mph /  3.2 km/h 62 % 0.00 in /  0 mm
12:14 45.3 °F /  7.4 °C 33.0 °F /  0.6 °C 29.92 in /  1013.1 hPa NNW 1.1 mph /  1.8 km/h 2.3 mph /  3.7 km/h 62 % 0.00 in /  0 mm
12:19 45.3 °F /  7.4 °C 33.0 °F /  0.6 °C 29.92 in /  1013.1 hPa NW 1.3 mph /  2.1 km/h 3.5 mph /  5.6 km/h 62 % 0.00 in /  0 mm
12:24 45.3 °F /  7.4 °C 32.6 °F /  0.3 °C 29.92 in /  1013.1 hPa NW 0.9 mph /  1.4 km/h 3.5 mph /  5.6 km/h 61 % 0.00 in /  0 mm
12:29 45.3 °F /  7.4 °C 32.6 °F /  0.3 °C 29.92 in /  1013.1 hPa NW 0.1 mph /  0.2 km/h 1.2 mph /  1.9 km/h 61 % 0.00 in /  0 mm
12:34 45.4 °F /  7.4 °C 33.1 °F /  0.6 °C 29.91 in /  1012.8 hPa Calm   2.3 mph /  3.7 km/h 62 % 0.00 in /  0 mm
12:39 45.4 °F /  7.4 °C 33.5 °F /  0.8 °C 29.91 in /  1012.8 hPa NNW 1.2 mph /  1.9 km/h 3.0 mph /  4.8 km/h 63 % 0.00 in /  0 mm
12:44 45.5 °F /  7.5 °C 33.2 °F /  0.7 °C 29.91 in /  1012.8 hPa NNW 0.1 mph /  0.2 km/h 2.3 mph /  3.7 km/h 62 % 0.00 in /  0 mm
12:49 45.6 °F /  7.6 °C 33.7 °F /  0.9 °C 29.91 in /  1012.8 hPa NNW 0.3 mph /  0.5 km/h 1.2 mph /  1.9 km/h 63 % 0.00 in /  0 mm
12:55 45.8 °F /  7.7 °C 33.5 °F /  0.8 °C 29.91 in /  1012.8 hPa Calm   3.5 mph /  5.6 km/h 62 % 0.00 in /  0 mm
13:00 45.9 °F /  7.7 °C 33.2 °F /  0.7 °C 29.90 in /  1012.4 hPa Calm     61 % 0.00 in /  0 mm
13:05 46.0 °F /  7.8 °C 33.7 °F /  0.9 °C 29.90 in /  1012.4 hPa NNW 0.2 mph /  0.3 km/h 2.3 mph /  3.7 km/h 62 % 0.00 in /  0 mm
13:10 46.1 °F /  7.8 °C 33.8 °F /  1 °C 29.90 in /  1012.4 hPa North 0.6 mph /  1 km/h 3.5 mph /  5.6 km/h 62 % 0.00 in /  0 mm
13:15 46.2 °F /  7.9 °C 33.5 °F /  0.8 °C 29.90 in /  1012.4 hPa NNW 1.2 mph /  1.9 km/h 3.5 mph /  5.6 km/h 61 % 0.00 in /  0 mm
13:20 46.3 °F /  7.9 °C 33.6 °F /  0.9 °C 29.90 in /  1012.4 hPa Calm   1.2 mph /  1.9 km/h 61 % 0.00 in /  0 mm
13:25 46.4 °F /  8 °C 33.7 °F /  0.9 °C 29.90 in /  1012.4 hPa WNW 1.4 mph /  2.3 km/h 3.5 mph /  5.6 km/h 61 % 0.00 in /  0 mm
13:30 46.5 °F /  8.1 °C 33.4 °F /  0.8 °C 29.90 in /  1012.4 hPa WNW 0.3 mph /  0.5 km/h 1.2 mph /  1.9 km/h 60 % 0.00 in /  0 mm
13:35 46.6 °F /  8.1 °C 33.9 °F /  1.1 °C 29.90 in /  1012.4 hPa WNW 0.2 mph /  0.3 km/h 1.0 mph /  1.6 km/h 61 % 0.00 in /  0 mm
13:40 46.7 °F /  8.2 °C 33.5 °F /  0.8 °C 29.90 in /  1012.4 hPa WNW 0.2 mph /  0.3 km/h 1.2 mph /  1.9 km/h 60 % 0.00 in /  0 mm
13:45 46.8 °F /  8.2 °C 34.0 °F /  1.1 °C 29.90 in /  1012.4 hPa Calm   1.2 mph /  1.9 km/h 61 % 0.00 in /  0 mm
13:50 47.0 °F /  8.3 °C 33.8 °F /  1 °C 29.90 in /  1012.4 hPa WNW 1.6 mph /  2.6 km/h 3.5 mph /  5.6 km/h 60 % 0.00 in /  0 mm
13:55 47.1 °F /  8.4 °C 33.1 °F /  0.6 °C 29.90 in /  1012.4 hPa West 1.2 mph /  1.9 km/h 2.3 mph /  3.7 km/h 58 % 0.00 in /  0 mm
14:00 47.1 °F /  8.4 °C 33.1 °F /  0.6 °C 29.90 in /  1012.4 hPa SW 2.0 mph /  3.2 km/h 3.5 mph /  5.6 km/h 58 % 0.00 in /  0 mm
14:05 47.2 °F /  8.4 °C 33.2 °F /  0.7 °C 29.90 in /  1012.4 hPa West 0.1 mph /  0.2 km/h 2.3 mph /  3.7 km/h 58 % 0.00 in /  0 mm
14:10 47.3 °F /  8.5 °C 33.7 °F /  0.9 °C 29.90 in /  1012.4 hPa SW 1.2 mph /  1.9 km/h 3.5 mph /  5.6 km/h 59 % 0.00 in /  0 mm
14:15 47.4 °F /  8.6 °C 33.4 °F /  0.8 °C 29.90 in /  1012.4 hPa WNW 1.3 mph /  2.1 km/h 3.5 mph /  5.6 km/h 58 % 0.00 in /  0 mm
14:20 47.4 °F /  8.6 °C 32.9 °F /  0.5 °C 29.90 in /  1012.4 hPa WNW 2.5 mph /  4 km/h 4.0 mph /  6.4 km/h 57 % 0.00 in /  0 mm
14:25 47.4 °F /  8.6 °C 32.9 °F /  0.5 °C 29.90 in /  1012.4 hPa WNW 2.2 mph /  3.5 km/h 3.5 mph /  5.6 km/h 57 % 0.00 in /  0 mm
14:30 47.4 °F /  8.6 °C 32.9 °F /  0.5 °C 29.90 in /  1012.4 hPa West 0.3 mph /  0.5 km/h 2.3 mph /  3.7 km/h 57 % 0.00 in /  0 mm
14:35 47.4 °F /  8.6 °C 32.9 °F /  0.5 °C 29.90 in /  1012.4 hPa WSW 2.4 mph /  3.9 km/h 3.0 mph /  4.8 km/h 57 % 0.00 in /  0 mm
14:40 47.2 °F /  8.4 °C 33.2 °F /  0.7 °C 29.90 in /  1012.4 hPa WSW 1.3 mph /  2.1 km/h 2.0 mph /  3.2 km/h 58 % 0.00 in /  0 mm
14:45 47.0 °F /  8.3 °C 33.0 °F /  0.6 °C 29.90 in /  1012.4 hPa WSW 0.1 mph /  0.2 km/h 2.0 mph /  3.2 km/h 58 % 0.00 in /  0 mm
14:51 47.0 °F /  8.3 °C 33.0 °F /  0.6 °C 29.90 in /  1012.4 hPa Calm   1.0 mph /  1.6 km/h 58 % 0.00 in /  0 mm
14:56 46.9 °F /  8.3 °C 32.9 °F /  0.5 °C 29.90 in /  1012.4 hPa SW 1.0 mph /  1.6 km/h 3.0 mph /  4.8 km/h 58 % 0.00 in /  0 mm
15:01 46.8 °F /  8.2 °C 33.2 °F /  0.7 °C 29.90 in /  1012.4 hPa West 2.2 mph /  3.5 km/h 3.5 mph /  5.6 km/h 59 % 0.00 in /  0 mm
15:06 46.7 °F /  8.2 °C 33.1 °F /  0.6 °C 29.90 in /  1012.4 hPa SW 0.1 mph /  0.2 km/h 3.5 mph /  5.6 km/h 59 % 0.00 in /  0 mm
15:16 46.6 °F /  8.1 °C 33.0 °F /  0.6 °C 29.90 in /  1012.4 hPa Calm     59 % 0.00 in /  0 mm
15:26 46.5 °F /  8.1 °C 32.9 °F /  0.5 °C 29.90 in /  1012.4 hPa WSW 0.2 mph /  0.3 km/h 1.2 mph /  1.9 km/h 59 % 0.00 in /  0 mm
15:31 46.4 °F /  8 °C 32.8 °F /  0.4 °C 29.90 in /  1012.4 hPa WSW 1.0 mph /  1.6 km/h 3.5 mph /  5.6 km/h 59 % 0.00 in /  0 mm
15:36 46.4 °F /  8 °C 33.3 °F /  0.7 °C 29.90 in /  1012.4 hPa SW 2.7 mph /  4.3 km/h 3.5 mph /  5.6 km/h 60 % 0.00 in /  0 mm
15:41 46.3 °F /  7.9 °C 33.2 °F /  0.7 °C 29.90 in /  1012.4 hPa SW 0.2 mph /  0.3 km/h 3.5 mph /  5.6 km/h 60 % 0.00 in /  0 mm
15:46 46.3 °F /  7.9 °C 33.2 °F /  0.7 °C 29.91 in /  1012.8 hPa SW 1.5 mph /  2.4 km/h 3.5 mph /  5.6 km/h 60 % 0.00 in /  0 mm
15:51 46.3 °F /  7.9 °C 33.2 °F /  0.7 °C 29.91 in /  1012.8 hPa SW 2.8 mph /  4.5 km/h 3.5 mph /  5.6 km/h 60 % 0.00 in /  0 mm
15:56 46.2 °F /  7.9 °C 33.1 °F /  0.6 °C 29.91 in /  1012.8 hPa SW 2.0 mph /  3.2 km/h 3.5 mph /  5.6 km/h 60 % 0.00 in /  0 mm
16:01 46.1 °F /  7.8 °C 33.0 °F /  0.6 °C 29.91 in /  1012.8 hPa SW 0.1 mph /  0.2 km/h 1.2 mph /  1.9 km/h 60 % 0.00 in /  0 mm
16:06 46.1 °F /  7.8 °C 33.4 °F /  0.8 °C 29.91 in /  1012.8 hPa SW 0.6 mph /  1 km/h 2.3 mph /  3.7 km/h 61 % 0.00 in /  0 mm
16:11 46.0 °F /  7.8 °C 33.3 °F /  0.7 °C 29.91 in /  1012.8 hPa West 0.2 mph /  0.3 km/h 1.0 mph /  1.6 km/h 61 % 0.00 in /  0 mm
16:16 45.9 °F /  7.7 °C 33.2 °F /  0.7 °C 29.91 in /  1012.8 hPa Calm     61 % 0.00 in /  0 mm
16:21 45.9 °F /  7.7 °C 33.2 °F /  0.7 °C 29.91 in /  1012.8 hPa Calm     61 % 0.00 in /  0 mm
16:31 45.6 °F /  7.6 °C 33.3 °F /  0.7 °C 29.91 in /  1012.8 hPa Calm     62 % 0.00 in /  0 mm
16:36 45.4 °F /  7.4 °C 33.1 °F /  0.6 °C 29.91 in /  1012.8 hPa Calm     62 % 0.00 in /  0 mm
16:41 45.2 °F /  7.3 °C 32.9 °F /  0.5 °C 29.91 in /  1012.8 hPa Calm     62 % 0.00 in /  0 mm
16:46 44.9 °F /  7.2 °C 32.7 °F /  0.4 °C 29.91 in /  1012.8 hPa Calm     62 % 0.00 in /  0 mm
16:51 44.7 °F /  7.1 °C 32.9 °F /  0.5 °C 29.91 in /  1012.8 hPa Calm     63 % 0.00 in /  0 mm
16:57 44.3 °F /  6.8 °C 32.9 °F /  0.5 °C 29.91 in /  1012.8 hPa Calm     64 % 0.00 in /  0 mm
17:07 43.8 °F /  6.6 °C 32.8 °F /  0.4 °C 29.91 in /  1012.8 hPa West 0.1 mph /  0.2 km/h 1.0 mph /  1.6 km/h 65 % 0.00 in /  0 mm
17:12 43.6 °F /  6.4 °C 33.0 °F /  0.6 °C 29.91 in /  1012.8 hPa West 1.4 mph /  2.3 km/h 2.3 mph /  3.7 km/h 66 % 0.00 in /  0 mm
17:22 43.1 °F /  6.2 °C 32.5 °F /  0.3 °C 29.92 in /  1013.1 hPa Calm     66 % 0.00 in /  0 mm
17:27 42.9 °F /  6.1 °C 32.3 °F /  0.2 °C 29.92 in /  1013.1 hPa Calm     66 % 0.00 in /  0 mm
17:37 42.5 °F /  5.8 °C 32.3 °F /  0.2 °C 29.92 in /  1013.1 hPa Calm     67 % 0.00 in /  0 mm
17:42 42.3 °F /  5.7 °C 32.1 °F /  0.1 °C 29.92 in /  1013.1 hPa Calm     67 % 0.00 in /  0 mm
17:52 41.8 °F /  5.4 °C 32.0 °F /  0 °C 29.93 in /  1013.4 hPa Calm   1.0 mph /  1.6 km/h 68 % 0.00 in /  0 mm
17:57 41.4 °F /  5.2 °C 31.6 °F /  -0.2 °C 29.93 in /  1013.4 hPa Calm   1.2 mph /  1.9 km/h 68 % 0.00 in /  0 mm
18:07 41.0 °F /  5 °C 31.6 °F /  -0.2 °C 29.94 in /  1013.8 hPa Calm     69 % 0.00 in /  0 mm
18:17 40.5 °F /  4.7 °C 31.5 °F /  -0.3 °C 29.93 in /  1013.4 hPa Calm     70 % 0.00 in /  0 mm
18:22 40.3 °F /  4.6 °C 31.3 °F /  -0.4 °C 29.93 in /  1013.4 hPa Calm     70 % 0.00 in /  0 mm
18:27 40.0 °F /  4.4 °C 31.0 °F /  -0.6 °C 29.93 in /  1013.4 hPa Calm     70 % 0.00 in /  0 mm
18:32 39.8 °F /  4.3 °C 31.2 °F /  -0.4 °C 29.93 in /  1013.4 hPa Calm     71 % 0.00 in /  0 mm
18:42 39.4 °F /  4.1 °C 31.1 °F /  -0.5 °C 29.93 in /  1013.4 hPa Calm     72 % 0.00 in /  0 mm
18:47 39.2 °F /  4 °C 31.3 °F /  -0.4 °C 29.94 in /  1013.8 hPa Calm     73 % 0.00 in /  0 mm
18:53 39.0 °F /  3.9 °C 31.1 °F /  -0.5 °C 29.94 in /  1013.8 hPa Calm     73 % 0.00 in /  0 mm
18:55 38.9 °F /  3.8 °C 31.3 °F /  -0.4 °C 29.94 in /  1013.8 hPa Calm     74 % 0.00 in /  0 mm
19:01 38.8 °F /  3.8 °C 31.6 °F /  -0.2 °C 29.95 in /  1014.1 hPa Calm     75 % 0.00 in /  0 mm
19:06 38.8 °F /  3.8 °C 31.9 °F /  -0.1 °C 29.94 in /  1013.8 hPa Calm     76 % 0.00 in /  0 mm
19:11 38.7 °F /  3.7 °C 31.5 °F /  -0.3 °C 29.93 in /  1013.4 hPa Calm     75 % 0.00 in /  0 mm
19:16 38.7 °F /  3.7 °C 31.5 °F /  -0.3 °C 29.93 in /  1013.4 hPa Calm     75 % 0.00 in /  0 mm
19:21 38.7 °F /  3.7 °C 31.8 °F /  -0.1 °C 29.93 in /  1013.4 hPa Calm     76 % 0.00 in /  0 mm
19:27 38.6 °F /  3.7 °C 31.7 °F /  -0.2 °C 29.94 in /  1013.8 hPa Calm   1.2 mph /  1.9 km/h 76 % 0.00 in /  0 mm
19:32 38.6 °F /  3.7 °C 31.7 °F /  -0.2 °C 29.94 in /  1013.8 hPa Calm     76 % 0.00 in /  0 mm
19:37 38.6 °F /  3.7 °C 31.7 °F /  -0.2 °C 29.94 in /  1013.8 hPa Calm     76 % 0.00 in /  0 mm
19:42 38.6 °F /  3.7 °C 31.7 °F /  -0.2 °C 29.94 in /  1013.8 hPa Calm     76 % 0.00 in /  0 mm
19:47 38.7 °F /  3.7 °C 31.8 °F /  -0.1 °C 29.93 in /  1013.4 hPa Calm     76 % 0.00 in /  0 mm
19:52 38.7 °F /  3.7 °C 31.8 °F /  -0.1 °C 29.93 in /  1013.4 hPa Calm     76 % 0.00 in /  0 mm
19:57 38.7 °F /  3.7 °C 31.8 °F /  -0.1 °C 29.94 in /  1013.8 hPa Calm   1.2 mph /  1.9 km/h 76 % 0.00 in /  0 mm
20:02 38.8 °F /  3.8 °C 32.2 °F /  0.1 °C 29.94 in /  1013.8 hPa Calm     77 % 0.00 in /  0 mm
20:07 38.9 °F /  3.8 °C 32.3 °F /  0.2 °C 29.94 in /  1013.8 hPa WSW 1.5 mph /  2.4 km/h 3.5 mph /  5.6 km/h 77 % 0.00 in /  0 mm
20:12 39.1 °F /  3.9 °C 32.5 °F /  0.3 °C 29.94 in /  1013.8 hPa SW 2.2 mph /  3.5 km/h 3.5 mph /  5.6 km/h 77 % 0.00 in /  0 mm
20:17 39.2 °F /  4 °C 32.6 °F /  0.3 °C 29.94 in /  1013.8 hPa SW 0.7 mph /  1.1 km/h 3.5 mph /  5.6 km/h 77 % 0.00 in /  0 mm
20:22 39.3 °F /  4.1 °C 32.7 °F /  0.4 °C 29.95 in /  1014.1 hPa SW 1.0 mph /  1.6 km/h 3.5 mph /  5.6 km/h 77 % 0.00 in /  0 mm
20:27 39.5 °F /  4.2 °C 32.9 °F /  0.5 °C 29.95 in /  1014.1 hPa SW 0.8 mph /  1.3 km/h 2.3 mph /  3.7 km/h 77 % 0.00 in /  0 mm
20:32 39.7 °F /  4.3 °C 33.1 °F /  0.6 °C 29.95 in /  1014.1 hPa Calm     77 % 0.00 in /  0 mm
20:37 39.9 °F /  4.4 °C 33.3 °F /  0.7 °C 29.95 in /  1014.1 hPa SW 0.1 mph /  0.2 km/h 2.3 mph /  3.7 km/h 77 % 0.00 in /  0 mm
20:42 40.1 °F /  4.5 °C 33.5 °F /  0.8 °C 29.95 in /  1014.1 hPa Calm   1.2 mph /  1.9 km/h 77 % 0.00 in /  0 mm
20:47 40.3 °F /  4.6 °C 33.7 °F /  0.9 °C 29.95 in /  1014.1 hPa Calm     77 % 0.00 in /  0 mm
20:52 40.5 °F /  4.7 °C 33.5 °F /  0.8 °C 29.95 in /  1014.1 hPa Calm   1.0 mph /  1.6 km/h 76 % 0.00 in /  0 mm
20:57 40.7 °F /  4.8 °C 33.7 °F /  0.9 °C 29.95 in /  1014.1 hPa Calm     76 % 0.00 in /  0 mm
21:02 41.0 °F /  5 °C 33.7 °F /  0.9 °C 29.93 in /  1013.4 hPa SW 1.0 mph /  1.6 km/h 2.3 mph /  3.7 km/h 75 % 0.00 in /  0 mm
21:07 41.1 °F /  5.1 °C 33.8 °F /  1 °C 29.93 in /  1013.4 hPa Calm     75 % 0.00 in /  0 mm
21:12 41.3 °F /  5.2 °C 34.0 °F /  1.1 °C 29.94 in /  1013.8 hPa SSW 1.2 mph /  1.9 km/h 3.5 mph /  5.6 km/h 75 % 0.00 in /  0 mm
21:17 41.4 °F /  5.2 °C 34.1 °F /  1.2 °C 29.94 in /  1013.8 hPa Calm   1.2 mph /  1.9 km/h 75 % 0.00 in /  0 mm
21:22 41.5 °F /  5.3 °C 34.2 °F /  1.2 °C 29.94 in /  1013.8 hPa SSW 0.1 mph /  0.2 km/h 2.3 mph /  3.7 km/h 75 % 0.00 in /  0 mm
21:28 41.6 °F /  5.3 °C 33.9 °F /  1.1 °C 29.95 in /  1014.1 hPa SW 1.4 mph /  2.3 km/h 3.5 mph /  5.6 km/h 74 % 0.00 in /  0 mm
21:33 41.8 °F /  5.4 °C 34.1 °F /  1.2 °C 29.95 in /  1014.1 hPa Calm   2.3 mph /  3.7 km/h 74 % 0.00 in /  0 mm
21:43 42.0 °F /  5.6 °C 34.3 °F /  1.3 °C 29.95 in /  1014.1 hPa SW 0.1 mph /  0.2 km/h 1.2 mph /  1.9 km/h 74 % 0.00 in /  0 mm
21:48 42.1 °F /  5.6 °C 34.1 °F /  1.2 °C 29.95 in /  1014.1 hPa SW 0.1 mph /  0.2 km/h 2.3 mph /  3.7 km/h 73 % 0.00 in /  0 mm
21:53 42.2 °F /  5.7 °C 34.2 °F /  1.2 °C 29.95 in /  1014.1 hPa Calm     73 % 0.00 in /  0 mm
21:58 42.2 °F /  5.7 °C 34.2 °F /  1.2 °C 29.95 in /  1014.1 hPa Calm     73 % 0.00 in /  0 mm
22:03 42.3 °F /  5.7 °C 34.3 °F /  1.3 °C 29.95 in /  1014.1 hPa Calm     73 % 0.00 in /  0 mm
22:13 42.3 °F /  5.7 °C 34.3 °F /  1.3 °C 29.95 in /  1014.1 hPa Calm     73 % 0.00 in /  0 mm
22:18 42.3 °F /  5.7 °C 34.3 °F /  1.3 °C 29.94 in /  1013.8 hPa Calm   1.2 mph /  1.9 km/h 73 % 0.00 in /  0 mm
22:23 42.3 °F /  5.7 °C 34.3 °F /  1.3 °C 29.94 in /  1013.8 hPa Calm     73 % 0.00 in /  0 mm
22:28 42.2 °F /  5.7 °C 34.2 °F /  1.2 °C 29.94 in /  1013.8 hPa Calm     73 % 0.00 in /  0 mm
22:33 42.2 °F /  5.7 °C 34.5 °F /  1.4 °C 29.94 in /  1013.8 hPa Calm     74 % 0.00 in /  0 mm
22:38 42.1 °F /  5.6 °C 34.4 °F /  1.3 °C 29.93 in /  1013.4 hPa Calm     74 % 0.00 in /  0 mm
22:43 42.1 °F /  5.6 °C 34.4 °F /  1.3 °C 29.93 in /  1013.4 hPa Calm     74 % 0.00 in /  0 mm
22:48 42.0 °F /  5.6 °C 34.3 °F /  1.3 °C 29.94 in /  1013.8 hPa Calm     74 % 0.00 in /  0 mm
22:53 42.0 °F /  5.6 °C 34.3 °F /  1.3 °C 29.94 in /  1013.8 hPa Calm     74 % 0.00 in /  0 mm
23:03 42.1 °F /  5.6 °C 34.4 °F /  1.3 °C 29.93 in /  1013.4 hPa Calm     74 % 0.00 in /  0 mm
23:08 42.0 °F /  5.6 °C 34.3 °F /  1.3 °C 29.93 in /  1013.4 hPa Calm     74 % 0.00 in /  0 mm
23:13 42.0 °F /  5.6 °C 34.3 °F /  1.3 °C 29.93 in /  1013.4 hPa Calm     74 % 0.00 in /  0 mm
23:18 42.0 °F /  5.6 °C 34.6 °F /  1.4 °C 29.93 in /  1013.4 hPa Calm     75 % 0.00 in /  0 mm
23:23 42.1 °F /  5.6 °C 34.7 °F /  1.5 °C 29.93 in /  1013.4 hPa Calm     75 % 0.00 in /  0 mm
23:28 42.1 °F /  5.6 °C 35.1 °F /  1.7 °C 29.93 in /  1013.4 hPa Calm     76 % 0.00 in /  0 mm
23:34 42.1 °F /  5.6 °C 35.4 °F /  1.9 °C 29.94 in /  1013.8 hPa Calm     77 % 0.00 in /  0 mm
23:39 42.1 °F /  5.6 °C 35.4 °F /  1.9 °C 29.94 in /  1013.8 hPa Calm     77 % 0.00 in /  0 mm
23:44 42.1 °F /  5.6 °C 35.7 °F /  2.1 °C 29.94 in /  1013.8 hPa Calm     78 % 0.00 in /  0 mm
23:49 42.0 °F /  5.6 °C 35.6 °F /  2 °C 29.94 in /  1013.8 hPa Calm     78 % 0.00 in /  0 mm
23:54 41.9 °F /  5.5 °C 35.9 °F /  2.2 °C 29.94 in /  1013.8 hPa Calm     79 % 0.00 in /  0 mm
23:59 41.9 °F /  5.5 °C 36.2 °F /  2.3 °C 29.94 in /  1013.8 hPa Calm     80 % 0.00 in /  0 mm
Crab Meadow Weather
Compliments of Weather Underground - 2.75 mb

Script developed by  Jim McMurry - jmcmurry@mwt.net Adapted for the template by  Wim van der Kuil - Leuven-Template.eu

Astronomy: One day on Uranus is 18 hours